sensor_id;sensor_type;location;lat;lon;timestamp;temperature;humidity
47521;DHT22;32291;52.010;4.446;2023-05-07T00:00:11;14.20;99.90
47521;DHT22;32291;52.010;4.446;2023-05-07T00:01:16;14.10;99.90
47521;DHT22;32291;52.010;4.446;2023-05-07T00:02:18;14.10;99.90
47521;DHT22;32291;52.010;4.446;2023-05-07T00:03:19;14.10;99.90
47521;DHT22;32291;52.010;4.446;2023-05-07T00:04:21;14.10;99.90
47521;DHT22;32291;52.010;4.446;2023-05-07T00:05:23;14.10;99.90
47521;DHT22;32291;52.010;4.446;2023-05-07T00:06:25;14.10;99.90
47521;DHT22;32291;52.010;4.446;2023-05-07T00:07:30;14.10;99.90
47521;DHT22;32291;52.010;4.446;2023-05-07T00:08:32;14.10;99.90
47521;DHT22;32291;52.010;4.446;2023-05-07T00:09:34;14.10;99.90
47521;DHT22;32291;52.010;4.446;2023-05-07T00:10:36;14.00;99.90
47521;DHT22;32291;52.010;4.446;2023-05-07T00:11:38;14.00;99.90
47521;DHT22;32291;52.010;4.446;2023-05-07T00:12:40;14.00;99.90
47521;DHT22;32291;52.010;4.446;2023-05-07T00:13:42;14.00;99.90
47521;DHT22;32291;52.010;4.446;2023-05-07T00:14:44;14.00;99.90
47521;DHT22;32291;52.010;4.446;2023-05-07T00:15:46;14.00;99.90
47521;DHT22;32291;52.010;4.446;2023-05-07T00:16:48;13.90;99.90
47521;DHT22;32291;52.010;4.446;2023-05-07T00:17:50;14.00;99.90
47521;DHT22;32291;52.010;4.446;2023-05-07T00:18:52;13.90;99.90
47521;DHT22;32291;52.010;4.446;2023-05-07T00:19:54;13.90;99.90
47521;DHT22;32291;52.010;4.446;2023-05-07T00:20:55;13.90;99.90
47521;DHT22;32291;52.010;4.446;2023-05-07T00:21:57;13.90;99.90
47521;DHT22;32291;52.010;4.446;2023-05-07T00:22:59;13.90;99.90
47521;DHT22;32291;52.010;4.446;2023-05-07T00:24:01;13.90;99.90
47521;DHT22;32291;52.010;4.446;2023-05-07T00:25:03;13.90;99.90
47521;DHT22;32291;52.010;4.446;2023-05-07T00:26:06;13.80;99.90
47521;DHT22;32291;52.010;4.446;2023-05-07T00:27:08;13.80;99.90
47521;DHT22;32291;52.010;4.446;2023-05-07T00:28:10;13.80;99.90
47521;DHT22;32291;52.010;4.446;2023-05-07T00:29:11;13.80;99.90
47521;DHT22;32291;52.010;4.446;2023-05-07T00:30:13;13.80;99.90
47521;DHT22;32291;52.010;4.446;2023-05-07T00:31:15;13.80;99.90
47521;DHT22;32291;52.010;4.446;2023-05-07T00:32:17;13.70;99.90
47521;DHT22;32291;52.010;4.446;2023-05-07T00:33:18;13.80;99.90
47521;DHT22;32291;52.010;4.446;2023-05-07T00:34:22;13.70;99.90
47521;DHT22;32291;52.010;4.446;2023-05-07T00:35:23;13.70;99.90
47521;DHT22;32291;52.010;4.446;2023-05-07T00:36:25;13.80;99.90
47521;DHT22;32291;52.010;4.446;2023-05-07T00:37:27;13.70;99.90
47521;DHT22;32291;52.010;4.446;2023-05-07T00:38:28;13.80;99.90
47521;DHT22;32291;52.010;4.446;2023-05-07T00:39:30;13.80;99.90
47521;DHT22;32291;52.010;4.446;2023-05-07T00:40:32;13.80;99.90
47521;DHT22;32291;52.010;4.446;2023-05-07T00:41:33;13.70;99.90
47521;DHT22;32291;52.010;4.446;2023-05-07T00:42:35;13.70;99.90
47521;DHT22;32291;52.010;4.446;2023-05-07T00:43:37;13.70;99.90
47521;DHT22;32291;52.010;4.446;2023-05-07T00:44:39;13.70;99.90
47521;DHT22;32291;52.010;4.446;2023-05-07T00:45:41;13.70;99.90
47521;DHT22;32291;52.010;4.446;2023-05-07T00:46:43;13.70;99.90
47521;DHT22;32291;52.010;4.446;2023-05-07T00:47:46;13.70;99.90
47521;DHT22;32291;52.010;4.446;2023-05-07T00:48:48;13.70;99.90
47521;DHT22;32291;52.010;4.446;2023-05-07T00:49:51;13.70;99.90
47521;DHT22;32291;52.010;4.446;2023-05-07T00:50:54;13.70;99.90
47521;DHT22;32291;52.010;4.446;2023-05-07T00:51:55;13.70;99.90
47521;DHT22;32291;52.010;4.446;2023-05-07T00:52:58;13.70;99.90
47521;DHT22;32291;52.010;4.446;2023-05-07T00:54:02;13.70;99.90
47521;DHT22;32291;52.010;4.446;2023-05-07T00:55:06;13.70;99.90
47521;DHT22;32291;52.010;4.446;2023-05-07T00:56:09;13.70;99.90
47521;DHT22;32291;52.010;4.446;2023-05-07T00:57:11;13.70;99.90
47521;DHT22;32291;52.010;4.446;2023-05-07T00:58:12;13.70;99.90
47521;DHT22;32291;52.010;4.446;2023-05-07T00:59:15;13.70;99.90
47521;DHT22;32291;52.010;4.446;2023-05-07T01:00:17;13.70;99.90
47521;DHT22;32291;52.010;4.446;2023-05-07T01:01:19;13.70;99.90
47521;DHT22;32291;52.010;4.446;2023-05-07T01:02:21;13.70;99.90
47521;DHT22;32291;52.010;4.446;2023-05-07T01:03:23;13.60;99.90
47521;DHT22;32291;52.010;4.446;2023-05-07T01:04:26;13.60;99.90
47521;DHT22;32291;52.010;4.446;2023-05-07T01:05:29;13.60;99.90
47521;DHT22;32291;52.010;4.446;2023-05-07T01:06:32;13.60;99.90
47521;DHT22;32291;52.010;4.446;2023-05-07T01:07:35;13.60;99.90
47521;DHT22;32291;52.010;4.446;2023-05-07T01:08:40;13.60;99.90
47521;DHT22;32291;52.010;4.446;2023-05-07T01:09:43;13.60;99.90
47521;DHT22;32291;52.010;4.446;2023-05-07T01:10:46;13.50;99.90
47521;DHT22;32291;52.010;4.446;2023-05-07T01:11:49;13.50;99.90
47521;DHT22;32291;52.010;4.446;2023-05-07T01:12:52;13.50;99.90
47521;DHT22;32291;52.010;4.446;2023-05-07T01:13:55;13.60;99.90
47521;DHT22;32291;52.010;4.446;2023-05-07T01:15:00;13.50;99.90
47521;DHT22;32291;52.010;4.446;2023-05-07T01:16:03;13.50;99.90
47521;DHT22;32291;52.010;4.446;2023-05-07T01:17:05;13.50;99.90
47521;DHT22;32291;52.010;4.446;2023-05-07T01:18:07;13.50;99.90
47521;DHT22;32291;52.010;4.446;2023-05-07T01:19:11;13.60;99.90
47521;DHT22;32291;52.010;4.446;2023-05-07T01:20:18;13.60;99.90
47521;DHT22;32291;52.010;4.446;2023-05-07T01:21:25;13.60;99.90
47521;DHT22;32291;52.010;4.446;2023-05-07T01:22:31;13.60;99.90
47521;DHT22;32291;52.010;4.446;2023-05-07T01:23:35;13.60;99.90
47521;DHT22;32291;52.010;4.446;2023-05-07T01:24:37;13.60;99.90
47521;DHT22;32291;52.010;4.446;2023-05-07T01:25:39;13.60;99.90
47521;DHT22;32291;52.010;4.446;2023-05-07T01:26:42;13.60;99.90
47521;DHT22;32291;52.010;4.446;2023-05-07T01:27:45;13.50;99.90
47521;DHT22;32291;52.010;4.446;2023-05-07T01:28:47;13.50;99.90
47521;DHT22;32291;52.010;4.446;2023-05-07T01:29:48;13.50;99.90
47521;DHT22;32291;52.010;4.446;2023-05-07T01:30:54;13.50;99.90
47521;DHT22;32291;52.010;4.446;2023-05-07T01:32:01;13.50;99.90
47521;DHT22;32291;52.010;4.446;2023-05-07T01:33:09;13.40;99.90
47521;DHT22;32291;52.010;4.446;2023-05-07T01:34:16;13.40;99.90
47521;DHT22;32291;52.010;4.446;2023-05-07T01:35:23;13.40;99.90
47521;DHT22;32291;52.010;4.446;2023-05-07T01:36:29;13.40;99.90
47521;DHT22;32291;52.010;4.446;2023-05-07T01:37:31;13.40;99.90
47521;DHT22;32291;52.010;4.446;2023-05-07T01:38:34;13.40;99.90
47521;DHT22;32291;52.010;4.446;2023-05-07T01:39:39;13.40;99.90
47521;DHT22;32291;52.010;4.446;2023-05-07T01:40:43;13.40;99.90
47521;DHT22;32291;52.010;4.446;2023-05-07T01:41:45;13.50;99.90
47521;DHT22;32291;52.010;4.446;2023-05-07T01:42:48;13.40;99.90
47521;DHT22;32291;52.010;4.446;2023-05-07T01:43:50;13.50;99.90
47521;DHT22;32291;52.010;4.446;2023-05-07T01:44:53;13.50;99.90
47521;DHT22;32291;52.010;4.446;2023-05-07T01:45:55;13.50;99.90
47521;DHT22;32291;52.010;4.446;2023-05-07T01:46:58;13.50;99.90
47521;DHT22;32291;52.010;4.446;2023-05-07T01:48:02;13.50;99.90
47521;DHT22;32291;52.010;4.446;2023-05-07T01:49:04;13.50;99.90
47521;DHT22;32291;52.010;4.446;2023-05-07T01:50:07;13.50;99.90
47521;DHT22;32291;52.010;4.446;2023-05-07T01:51:10;13.60;99.90
47521;DHT22;32291;52.010;4.446;2023-05-07T01:52:12;13.60;99.90
47521;DHT22;32291;52.010;4.446;2023-05-07T01:53:15;13.60;99.90
47521;DHT22;32291;52.010;4.446;2023-05-07T01:54:17;13.60;99.90
47521;DHT22;32291;52.010;4.446;2023-05-07T01:55:19;13.60;99.90
47521;DHT22;32291;52.010;4.446;2023-05-07T01:56:21;13.60;99.90
47521;DHT22;32291;52.010;4.446;2023-05-07T01:57:22;13.60;99.90
47521;DHT22;32291;52.010;4.446;2023-05-07T01:58:24;13.60;99.90
47521;DHT22;32291;52.010;4.446;2023-05-07T01:59:26;13.60;99.90
47521;DHT22;32291;52.010;4.446;2023-05-07T02:00:27;13.70;99.90
47521;DHT22;32291;52.010;4.446;2023-05-07T02:01:30;13.70;99.90
47521;DHT22;32291;52.010;4.446;2023-05-07T02:02:32;13.70;99.90
47521;DHT22;32291;52.010;4.446;2023-05-07T02:03:34;13.70;99.90
47521;DHT22;32291;52.010;4.446;2023-05-07T02:04:35;13.70;99.90
47521;DHT22;32291;52.010;4.446;2023-05-07T02:05:37;13.70;99.90
47521;DHT22;32291;52.010;4.446;2023-05-07T02:06:39;13.70;99.90
47521;DHT22;32291;52.010;4.446;2023-05-07T02:07:41;13.70;99.90
47521;DHT22;32291;52.010;4.446;2023-05-07T02:08:43;13.80;99.90
47521;DHT22;32291;52.010;4.446;2023-05-07T02:09:45;13.80;99.90
47521;DHT22;32291;52.010;4.446;2023-05-07T02:10:46;13.70;99.90
47521;DHT22;32291;52.010;4.446;2023-05-07T02:11:48;13.70;99.90
47521;DHT22;32291;52.010;4.446;2023-05-07T02:12:50;13.70;99.90
47521;DHT22;32291;52.010;4.446;2023-05-07T02:13:52;13.70;99.90
47521;DHT22;32291;52.010;4.446;2023-05-07T02:14:54;13.70;99.90
47521;DHT22;32291;52.010;4.446;2023-05-07T02:15:57;13.80;99.90
47521;DHT22;32291;52.010;4.446;2023-05-07T02:16:59;13.70;99.90
47521;DHT22;32291;52.010;4.446;2023-05-07T02:18:04;13.70;99.90
47521;DHT22;32291;52.010;4.446;2023-05-07T02:19:07;13.70;99.90
47521;DHT22;32291;52.010;4.446;2023-05-07T02:20:09;13.70;99.90
47521;DHT22;32291;52.010;4.446;2023-05-07T02:21:14;13.70;99.90
47521;DHT22;32291;52.010;4.446;2023-05-07T02:22:16;13.70;99.90
47521;DHT22;32291;52.010;4.446;2023-05-07T02:23:18;13.70;99.90
47521;DHT22;32291;52.010;4.446;2023-05-07T02:24:20;13.80;99.90
47521;DHT22;32291;52.010;4.446;2023-05-07T02:25:22;13.70;99.90
47521;DHT22;32291;52.010;4.446;2023-05-07T02:26:24;13.70;99.90
47521;DHT22;32291;52.010;4.446;2023-05-07T02:27:27;13.70;99.90
47521;DHT22;32291;52.010;4.446;2023-05-07T02:28:29;13.70;99.90
47521;DHT22;32291;52.010;4.446;2023-05-07T02:29:31;13.70;99.90
47521;DHT22;32291;52.010;4.446;2023-05-07T02:30:33;13.70;99.90
47521;DHT22;32291;52.010;4.446;2023-05-07T02:31:34;13.60;99.90
47521;DHT22;32291;52.010;4.446;2023-05-07T02:32:36;13.70;99.90
47521;DHT22;32291;52.010;4.446;2023-05-07T02:33:38;13.60;99.90
47521;DHT22;32291;52.010;4.446;2023-05-07T02:34:39;13.70;99.90
47521;DHT22;32291;52.010;4.446;2023-05-07T02:35:41;13.70;99.90
47521;DHT22;32291;52.010;4.446;2023-05-07T02:36:43;13.70;99.90
47521;DHT22;32291;52.010;4.446;2023-05-07T02:37:45;13.70;99.90
47521;DHT22;32291;52.010;4.446;2023-05-07T02:38:47;13.70;99.90
47521;DHT22;32291;52.010;4.446;2023-05-07T02:39:48;13.70;99.90
47521;DHT22;32291;52.010;4.446;2023-05-07T02:40:50;13.70;99.90
47521;DHT22;32291;52.010;4.446;2023-05-07T02:41:52;13.70;99.90
47521;DHT22;32291;52.010;4.446;2023-05-07T02:42:54;13.70;99.90
47521;DHT22;32291;52.010;4.446;2023-05-07T02:43:55;13.70;99.90
47521;DHT22;32291;52.010;4.446;2023-05-07T02:44:57;13.70;99.90
47521;DHT22;32291;52.010;4.446;2023-05-07T02:46:06;13.70;99.90
47521;DHT22;32291;52.010;4.446;2023-05-07T02:47:09;13.80;99.90
47521;DHT22;32291;52.010;4.446;2023-05-07T02:48:11;13.80;99.90
47521;DHT22;32291;52.010;4.446;2023-05-07T02:49:13;13.80;99.90
47521;DHT22;32291;52.010;4.446;2023-05-07T02:50:15;13.80;99.90
47521;DHT22;32291;52.010;4.446;2023-05-07T02:51:21;13.80;99.90
47521;DHT22;32291;52.010;4.446;2023-05-07T02:52:23;13.90;99.90
47521;DHT22;32291;52.010;4.446;2023-05-07T02:53:25;13.90;99.90
47521;DHT22;32291;52.010;4.446;2023-05-07T02:54:28;13.90;99.90
47521;DHT22;32291;52.010;4.446;2023-05-07T02:55:29;13.90;99.90
47521;DHT22;32291;52.010;4.446;2023-05-07T02:56:31;13.90;99.90
47521;DHT22;32291;52.010;4.446;2023-05-07T02:57:33;13.90;99.90
47521;DHT22;32291;52.010;4.446;2023-05-07T02:58:35;13.80;99.90
47521;DHT22;32291;52.010;4.446;2023-05-07T02:59:37;13.90;99.90
47521;DHT22;32291;52.010;4.446;2023-05-07T03:00:39;13.90;99.90
47521;DHT22;32291;52.010;4.446;2023-05-07T03:01:41;13.90;99.90
47521;DHT22;32291;52.010;4.446;2023-05-07T03:02:45;13.90;99.90
47521;DHT22;32291;52.010;4.446;2023-05-07T03:03:46;13.90;99.90
47521;DHT22;32291;52.010;4.446;2023-05-07T03:04:48;13.90;99.90
47521;DHT22;32291;52.010;4.446;2023-05-07T03:05:51;13.90;99.90
47521;DHT22;32291;52.010;4.446;2023-05-07T03:06:53;13.90;99.90
47521;DHT22;32291;52.010;4.446;2023-05-07T03:07:54;13.90;99.90
47521;DHT22;32291;52.010;4.446;2023-05-07T03:08:56;13.90;99.90
47521;DHT22;32291;52.010;4.446;2023-05-07T03:09:57;14.00;99.90
47521;DHT22;32291;52.010;4.446;2023-05-07T03:10:59;13.90;99.90
47521;DHT22;32291;52.010;4.446;2023-05-07T03:12:01;13.90;99.90
47521;DHT22;32291;52.010;4.446;2023-05-07T03:13:03;13.90;99.90
47521;DHT22;32291;52.010;4.446;2023-05-07T03:14:06;14.00;99.90
47521;DHT22;32291;52.010;4.446;2023-05-07T03:15:08;14.00;99.90
47521;DHT22;32291;52.010;4.446;2023-05-07T03:16:11;14.00;99.90
47521;DHT22;32291;52.010;4.446;2023-05-07T03:17:13;14.00;99.90
47521;DHT22;32291;52.010;4.446;2023-05-07T03:18:14;14.00;99.90
47521;DHT22;32291;52.010;4.446;2023-05-07T03:19:16;14.00;99.90
47521;DHT22;32291;52.010;4.446;2023-05-07T03:20:17;14.00;99.90
47521;DHT22;32291;52.010;4.446;2023-05-07T03:21:19;14.00;99.90
47521;DHT22;32291;52.010;4.446;2023-05-07T03:22:21;14.00;99.90
47521;DHT22;32291;52.010;4.446;2023-05-07T03:23:23;14.00;99.90
47521;DHT22;32291;52.010;4.446;2023-05-07T03:24:25;14.00;99.90
47521;DHT22;32291;52.010;4.446;2023-05-07T03:25:27;14.00;99.90
47521;DHT22;32291;52.010;4.446;2023-05-07T03:26:31;14.00;99.90
47521;DHT22;32291;52.010;4.446;2023-05-07T03:27:33;14.00;99.90
47521;DHT22;32291;52.010;4.446;2023-05-07T03:28:35;14.00;99.90
47521;DHT22;32291;52.010;4.446;2023-05-07T03:29:36;14.00;99.90
47521;DHT22;32291;52.010;4.446;2023-05-07T03:30:38;14.00;99.90
47521;DHT22;32291;52.010;4.446;2023-05-07T03:31:40;14.00;99.90
47521;DHT22;32291;52.010;4.446;2023-05-07T03:32:43;14.00;99.90
47521;DHT22;32291;52.010;4.446;2023-05-07T03:33:54;14.00;99.90
47521;DHT22;32291;52.010;4.446;2023-05-07T03:34:57;14.00;99.90
47521;DHT22;32291;52.010;4.446;2023-05-07T03:35:59;14.00;99.90
47521;DHT22;32291;52.010;4.446;2023-05-07T03:37:00;14.00;99.90
47521;DHT22;32291;52.010;4.446;2023-05-07T03:38:02;14.00;99.90
47521;DHT22;32291;52.010;4.446;2023-05-07T03:39:04;14.00;99.90
47521;DHT22;32291;52.010;4.446;2023-05-07T03:40:06;14.00;99.90
47521;DHT22;32291;52.010;4.446;2023-05-07T03:41:09;14.00;99.90
47521;DHT22;32291;52.010;4.446;2023-05-07T03:42:11;14.00;99.90
47521;DHT22;32291;52.010;4.446;2023-05-07T03:43:12;14.00;99.90
47521;DHT22;32291;52.010;4.446;2023-05-07T03:44:14;14.00;99.90
47521;DHT22;32291;52.010;4.446;2023-05-07T03:45:16;14.00;99.90
47521;DHT22;32291;52.010;4.446;2023-05-07T03:46:17;14.00;99.90
47521;DHT22;32291;52.010;4.446;2023-05-07T03:47:19;14.00;99.90
47521;DHT22;32291;52.010;4.446;2023-05-07T03:48:20;14.00;99.90
47521;DHT22;32291;52.010;4.446;2023-05-07T03:49:22;14.00;99.90
47521;DHT22;32291;52.010;4.446;2023-05-07T03:50:24;14.00;99.90
47521;DHT22;32291;52.010;4.446;2023-05-07T03:51:26;14.10;99.90
47521;DHT22;32291;52.010;4.446;2023-05-07T03:52:28;14.00;99.90
47521;DHT22;32291;52.010;4.446;2023-05-07T03:53:30;14.00;99.90
47521;DHT22;32291;52.010;4.446;2023-05-07T03:54:32;14.00;99.90
47521;DHT22;32291;52.010;4.446;2023-05-07T03:55:34;14.00;99.90
47521;DHT22;32291;52.010;4.446;2023-05-07T03:56:37;14.00;99.90
47521;DHT22;32291;52.010;4.446;2023-05-07T03:57:41;14.10;99.90
47521;DHT22;32291;52.010;4.446;2023-05-07T03:58:43;14.10;99.90
47521;DHT22;32291;52.010;4.446;2023-05-07T03:59:44;14.00;99.90
47521;DHT22;32291;52.010;4.446;2023-05-07T04:00:46;14.00;99.90
47521;DHT22;32291;52.010;4.446;2023-05-07T04:01:48;14.00;99.90
47521;DHT22;32291;52.010;4.446;2023-05-07T04:02:53;14.00;99.90
47521;DHT22;32291;52.010;4.446;2023-05-07T04:03:55;14.00;99.90
47521;DHT22;32291;52.010;4.446;2023-05-07T04:04:56;14.10;99.90
47521;DHT22;32291;52.010;4.446;2023-05-07T04:05:58;14.10;99.90
47521;DHT22;32291;52.010;4.446;2023-05-07T04:06:59;14.00;99.90
47521;DHT22;32291;52.010;4.446;2023-05-07T04:08:01;14.00;99.90
47521;DHT22;32291;52.010;4.446;2023-05-07T04:09:03;14.10;99.90
47521;DHT22;32291;52.010;4.446;2023-05-07T04:10:06;14.10;99.90
47521;DHT22;32291;52.010;4.446;2023-05-07T04:11:08;14.10;99.90
47521;DHT22;32291;52.010;4.446;2023-05-07T04:12:09;14.10;99.90
47521;DHT22;32291;52.010;4.446;2023-05-07T04:13:11;14.10;99.90
47521;DHT22;32291;52.010;4.446;2023-05-07T04:14:13;14.10;99.90
47521;DHT22;32291;52.010;4.446;2023-05-07T04:15:15;14.10;99.90
47521;DHT22;32291;52.010;4.446;2023-05-07T04:16:17;14.10;99.90
47521;DHT22;32291;52.010;4.446;2023-05-07T04:17:19;14.10;99.90
47521;DHT22;32291;52.010;4.446;2023-05-07T04:18:20;14.10;99.90
47521;DHT22;32291;52.010;4.446;2023-05-07T04:19:22;14.10;99.90
47521;DHT22;32291;52.010;4.446;2023-05-07T04:20:24;14.10;99.90
47521;DHT22;32291;52.010;4.446;2023-05-07T04:21:25;14.10;99.90
47521;DHT22;32291;52.010;4.446;2023-05-07T04:22:27;14.10;99.90
47521;DHT22;32291;52.010;4.446;2023-05-07T04:23:29;14.10;99.90
47521;DHT22;32291;52.010;4.446;2023-05-07T04:24:33;14.10;99.90
47521;DHT22;32291;52.010;4.446;2023-05-07T04:25:35;14.10;99.90
47521;DHT22;32291;52.010;4.446;2023-05-07T04:26:37;14.10;99.90
47521;DHT22;32291;52.010;4.446;2023-05-07T04:27:38;14.10;99.90
47521;DHT22;32291;52.010;4.446;2023-05-07T04:28:41;14.20;99.90
47521;DHT22;32291;52.010;4.446;2023-05-07T04:29:43;14.20;99.90
47521;DHT22;32291;52.010;4.446;2023-05-07T04:30:49;14.10;99.90
47521;DHT22;32291;52.010;4.446;2023-05-07T04:31:51;14.10;99.90
47521;DHT22;32291;52.010;4.446;2023-05-07T04:32:53;14.10;99.90
47521;DHT22;32291;52.010;4.446;2023-05-07T04:33:55;14.20;99.90
47521;DHT22;32291;52.010;4.446;2023-05-07T04:34:56;14.10;99.90
47521;DHT22;32291;52.010;4.446;2023-05-07T04:36:01;14.20;99.90
47521;DHT22;32291;52.010;4.446;2023-05-07T04:37:04;14.20;99.90
47521;DHT22;32291;52.010;4.446;2023-05-07T04:38:05;14.10;99.90
47521;DHT22;32291;52.010;4.446;2023-05-07T04:39:07;14.10;99.90
47521;DHT22;32291;52.010;4.446;2023-05-07T04:40:09;14.20;99.90
47521;DHT22;32291;52.010;4.446;2023-05-07T04:41:13;14.20;99.90
47521;DHT22;32291;52.010;4.446;2023-05-07T04:42:18;14.20;99.90
47521;DHT22;32291;52.010;4.446;2023-05-07T04:43:20;14.20;99.90
47521;DHT22;32291;52.010;4.446;2023-05-07T04:44:22;14.20;99.90
47521;DHT22;32291;52.010;4.446;2023-05-07T04:45:23;14.20;99.90
47521;DHT22;32291;52.010;4.446;2023-05-07T04:46:25;14.20;99.90
47521;DHT22;32291;52.010;4.446;2023-05-07T04:47:26;14.20;99.90
47521;DHT22;32291;52.010;4.446;2023-05-07T04:48:28;14.20;99.90
47521;DHT22;32291;52.010;4.446;2023-05-07T04:49:30;14.20;99.90
47521;DHT22;32291;52.010;4.446;2023-05-07T04:50:32;14.20;99.90
47521;DHT22;32291;52.010;4.446;2023-05-07T04:51:34;14.20;99.90
47521;DHT22;32291;52.010;4.446;2023-05-07T04:52:36;14.30;99.90
47521;DHT22;32291;52.010;4.446;2023-05-07T04:53:38;14.30;99.90
47521;DHT22;32291;52.010;4.446;2023-05-07T04:54:39;14.30;99.90
47521;DHT22;32291;52.010;4.446;2023-05-07T04:55:41;14.30;99.90
47521;DHT22;32291;52.010;4.446;2023-05-07T04:56:42;14.30;99.90
47521;DHT22;32291;52.010;4.446;2023-05-07T04:57:44;14.30;99.90
47521;DHT22;32291;52.010;4.446;2023-05-07T04:58:46;14.30;99.90
47521;DHT22;32291;52.010;4.446;2023-05-07T04:59:48;14.30;99.90
47521;DHT22;32291;52.010;4.446;2023-05-07T05:00:50;14.40;99.90
47521;DHT22;32291;52.010;4.446;2023-05-07T05:01:52;14.30;99.90
47521;DHT22;32291;52.010;4.446;2023-05-07T05:02:53;14.30;99.90
47521;DHT22;32291;52.010;4.446;2023-05-07T05:03:55;14.30;99.90
47521;DHT22;32291;52.010;4.446;2023-05-07T05:04:56;14.40;99.90
47521;DHT22;32291;52.010;4.446;2023-05-07T05:05:58;14.40;99.90
47521;DHT22;32291;52.010;4.446;2023-05-07T05:07:00;14.40;99.90
47521;DHT22;32291;52.010;4.446;2023-05-07T05:08:02;14.40;99.90
47521;DHT22;32291;52.010;4.446;2023-05-07T05:09:04;14.40;99.90
47521;DHT22;32291;52.010;4.446;2023-05-07T05:10:06;14.40;99.90
47521;DHT22;32291;52.010;4.446;2023-05-07T05:11:08;14.50;99.90
47521;DHT22;32291;52.010;4.446;2023-05-07T05:12:09;14.50;99.90
47521;DHT22;32291;52.010;4.446;2023-05-07T05:13:11;14.50;99.90
47521;DHT22;32291;52.010;4.446;2023-05-07T05:14:13;14.50;99.90
47521;DHT22;32291;52.010;4.446;2023-05-07T05:15:15;14.50;99.90
47521;DHT22;32291;52.010;4.446;2023-05-07T05:16:17;14.50;99.90
47521;DHT22;32291;52.010;4.446;2023-05-07T05:17:19;14.60;99.90
47521;DHT22;32291;52.010;4.446;2023-05-07T05:18:20;14.60;99.90
47521;DHT22;32291;52.010;4.446;2023-05-07T05:19:22;14.60;99.90
47521;DHT22;32291;52.010;4.446;2023-05-07T05:20:24;14.70;99.90
47521;DHT22;32291;52.010;4.446;2023-05-07T05:21:25;14.70;99.90
47521;DHT22;32291;52.010;4.446;2023-05-07T05:22:27;14.70;99.90
47521;DHT22;32291;52.010;4.446;2023-05-07T05:23:32;14.80;99.90
47521;DHT22;32291;52.010;4.446;2023-05-07T05:24:34;14.80;99.90
47521;DHT22;32291;52.010;4.446;2023-05-07T05:25:36;14.80;99.90
47521;DHT22;32291;52.010;4.446;2023-05-07T05:26:38;14.90;99.90
47521;DHT22;32291;52.010;4.446;2023-05-07T05:27:39;14.90;99.90
47521;DHT22;32291;52.010;4.446;2023-05-07T05:28:41;14.90;99.90
47521;DHT22;32291;52.010;4.446;2023-05-07T05:29:43;14.90;99.90
47521;DHT22;32291;52.010;4.446;2023-05-07T05:30:45;14.90;99.90
47521;DHT22;32291;52.010;4.446;2023-05-07T05:31:46;14.90;99.90
47521;DHT22;32291;52.010;4.446;2023-05-07T05:32:48;15.00;99.90
47521;DHT22;32291;52.010;4.446;2023-05-07T05:33:49;15.00;99.90
47521;DHT22;32291;52.010;4.446;2023-05-07T05:34:51;15.00;99.90
47521;DHT22;32291;52.010;4.446;2023-05-07T05:35:56;15.00;99.90
47521;DHT22;32291;52.010;4.446;2023-05-07T05:36:58;15.00;99.90
47521;DHT22;32291;52.010;4.446;2023-05-07T05:38:01;15.00;99.90
47521;DHT22;32291;52.010;4.446;2023-05-07T05:39:04;15.10;99.90
47521;DHT22;32291;52.010;4.446;2023-05-07T05:40:06;15.10;99.90
47521;DHT22;32291;52.010;4.446;2023-05-07T05:41:08;15.10;99.90
47521;DHT22;32291;52.010;4.446;2023-05-07T05:42:09;15.10;99.90
47521;DHT22;32291;52.010;4.446;2023-05-07T05:43:11;15.20;99.90
47521;DHT22;32291;52.010;4.446;2023-05-07T05:44:13;15.20;99.90
47521;DHT22;32291;52.010;4.446;2023-05-07T05:45:15;15.20;99.90
47521;DHT22;32291;52.010;4.446;2023-05-07T05:46:16;15.30;99.90
47521;DHT22;32291;52.010;4.446;2023-05-07T05:47:18;15.30;99.90
47521;DHT22;32291;52.010;4.446;2023-05-07T05:48:19;15.30;99.90
47521;DHT22;32291;52.010;4.446;2023-05-07T05:49:21;15.40;99.90
47521;DHT22;32291;52.010;4.446;2023-05-07T05:50:23;15.40;99.90
47521;DHT22;32291;52.010;4.446;2023-05-07T05:51:25;15.40;99.90
47521;DHT22;32291;52.010;4.446;2023-05-07T05:52:28;15.50;99.90
47521;DHT22;32291;52.010;4.446;2023-05-07T05:53:29;15.50;99.90
47521;DHT22;32291;52.010;4.446;2023-05-07T05:54:31;15.50;99.90
47521;DHT22;32291;52.010;4.446;2023-05-07T05:55:33;15.50;99.90
47521;DHT22;32291;52.010;4.446;2023-05-07T05:56:36;15.60;99.90
47521;DHT22;32291;52.010;4.446;2023-05-07T05:57:38;15.60;99.90
47521;DHT22;32291;52.010;4.446;2023-05-07T05:58:43;15.60;99.90
47521;DHT22;32291;52.010;4.446;2023-05-07T05:59:44;15.60;99.90
47521;DHT22;32291;52.010;4.446;2023-05-07T06:00:48;15.70;99.90
47521;DHT22;32291;52.010;4.446;2023-05-07T06:01:53;15.70;99.90
47521;DHT22;32291;52.010;4.446;2023-05-07T06:02:55;15.70;99.90
47521;DHT22;32291;52.010;4.446;2023-05-07T06:03:57;15.80;99.90
47521;DHT22;32291;52.010;4.446;2023-05-07T06:04:59;15.80;99.90
47521;DHT22;32291;52.010;4.446;2023-05-07T06:06:01;15.90;99.90
47521;DHT22;32291;52.010;4.446;2023-05-07T06:07:03;15.90;99.90
47521;DHT22;32291;52.010;4.446;2023-05-07T06:08:05;16.00;99.90
47521;DHT22;32291;52.010;4.446;2023-05-07T06:09:07;16.00;99.90
47521;DHT22;32291;52.010;4.446;2023-05-07T06:10:09;16.10;99.90
47521;DHT22;32291;52.010;4.446;2023-05-07T06:11:11;16.20;99.90
47521;DHT22;32291;52.010;4.446;2023-05-07T06:12:13;16.30;99.90
47521;DHT22;32291;52.010;4.446;2023-05-07T06:13:14;16.40;99.90
47521;DHT22;32291;52.010;4.446;2023-05-07T06:14:16;16.50;99.90
47521;DHT22;32291;52.010;4.446;2023-05-07T06:15:17;16.60;99.90
47521;DHT22;32291;52.010;4.446;2023-05-07T06:16:19;16.70;99.90
47521;DHT22;32291;52.010;4.446;2023-05-07T06:17:21;16.70;99.90
47521;DHT22;32291;52.010;4.446;2023-05-07T06:18:23;16.80;99.90
47521;DHT22;32291;52.010;4.446;2023-05-07T06:19:25;16.90;99.90
47521;DHT22;32291;52.010;4.446;2023-05-07T06:20:28;17.00;99.90
47521;DHT22;32291;52.010;4.446;2023-05-07T06:21:29;17.00;99.90
47521;DHT22;32291;52.010;4.446;2023-05-07T06:22:32;17.20;99.90
47521;DHT22;32291;52.010;4.446;2023-05-07T06:23:34;17.20;99.90
47521;DHT22;32291;52.010;4.446;2023-05-07T06:24:36;17.30;99.90
47521;DHT22;32291;52.010;4.446;2023-05-07T06:25:38;17.40;99.90
47521;DHT22;32291;52.010;4.446;2023-05-07T06:26:39;17.40;99.90
47521;DHT22;32291;52.010;4.446;2023-05-07T06:27:41;17.40;99.90
47521;DHT22;32291;52.010;4.446;2023-05-07T06:28:43;17.50;99.90
47521;DHT22;32291;52.010;4.446;2023-05-07T06:29:45;17.50;99.90
47521;DHT22;32291;52.010;4.446;2023-05-07T06:30:46;17.40;99.90
47521;DHT22;32291;52.010;4.446;2023-05-07T06:31:48;17.50;99.90
47521;DHT22;32291;52.010;4.446;2023-05-07T06:32:49;17.50;99.90